AIC35K VOBL-KSFO
Flight info
| Callsign | AIC35K |
|---|---|
| Flight time | 4h 18m |
| Altitude | 33000 |
| Route | ANIRO8A ANIRO W47 VVZ W90 ISMON A465 KAKID W41 CEA B465 CTG A599 LINSO/K0946S1010 A599 SGM A581 WHA R343 PK W116 JTN G327 LAMEN/N0505F330 A593 SADLI Y590 BEDAR Y591 FUE Y23 KASTE Y81 CARSE/N0498F350 Y81 TASOT Y57 POROT Y809 IDLAN Y812 ADNAP OTR5 KALNA DCT 42N160E 45N170E/N0491F370 49N180E 49N170W 49N160W/N0495F390 49N150W 49N140W 44N130W DCT AMAKR BDEGA4 |
| Aircraft | A35K/H-SDE2E3GHIJ3J4J5LM1ORWXY/LB1D1 |
Departure
| Time | 2026-05-07 06:10 |
|---|---|
| Airport | Kempegowda International Airport Bengaluru (VOBL) |
Arrival
| Time | 2026-05-07 10:29 |
|---|---|
| Airport | San Francisco International Airport (KSFO) |
| Time | Latitude | Longitude | Altitude | Speed | Heading |
|---|---|---|---|---|---|
| 2026-05-07 05:44 | 13.19950 | 77.72030 | 3017 ft | 0 kts | 270° |
| 2026-05-07 05:54 | 13.19950 | 77.72033 | 3044 ft | 2 kts | 270° |
| 2026-05-07 05:54 | 13.19950 | 77.72050 | 3017 ft | 2 kts | 270° |
| 2026-05-07 05:54 | 13.19950 | 77.72067 | 3017 ft | 2 kts | 271° |
| 2026-05-07 05:54 | 13.19948 | 77.72084 | 3017 ft | 2 kts | 298° |
| 2026-05-07 05:55 | 13.19938 | 77.72097 | 3027 ft | 2 kts | 320° |
| 2026-05-07 05:55 | 13.19924 | 77.72107 | 3024 ft | 2 kts | 335° |
| 2026-05-07 05:55 | 13.19912 | 77.72111 | 3024 ft | 1 kts | 349° |
| 2026-05-07 05:55 | 13.19911 | 77.72111 | 3023 ft | 0 kts | 351° |
| 2026-05-07 05:59 | 13.19912 | 77.72111 | 3023 ft | 1 kts | 351° |
| 2026-05-07 05:59 | 13.19919 | 77.72111 | 3024 ft | 2 kts | 356° |
| 2026-05-07 05:59 | 13.19940 | 77.72111 | 3022 ft | 4 kts | 1° |
| 2026-05-07 06:00 | 13.19978 | 77.72111 | 3017 ft | 7 kts | 0° |
| 2026-05-07 06:00 | 13.20032 | 77.72111 | 3017 ft | 9 kts | 1° |
| 2026-05-07 06:00 | 13.20102 | 77.72112 | 3017 ft | 11 kts | 0° |
| 2026-05-07 06:00 | 13.20185 | 77.72113 | 3017 ft | 13 kts | 0° |
| 2026-05-07 06:01 | 13.20280 | 77.72114 | 3017 ft | 15 kts | 0° |
| 2026-05-07 06:01 | 13.20387 | 77.72115 | 3017 ft | 16 kts | 0° |
| 2026-05-07 06:01 | 13.20494 | 77.72102 | 3017 ft | 14 kts | 326° |
| 2026-05-07 06:01 | 13.20519 | 77.72024 | 3017 ft | 11 kts | 271° |
| 2026-05-07 06:02 | 13.20520 | 77.71941 | 3017 ft | 12 kts | 270° |
| 2026-05-07 06:02 | 13.20521 | 77.71847 | 3017 ft | 14 kts | 271° |
| 2026-05-07 06:02 | 13.20522 | 77.71734 | 3017 ft | 17 kts | 270° |
| 2026-05-07 06:02 | 13.20523 | 77.71598 | 3017 ft | 21 kts | 270° |
| 2026-05-07 06:03 | 13.20525 | 77.71440 | 3017 ft | 24 kts | 271° |
| 2026-05-07 06:03 | 13.20526 | 77.71254 | 3017 ft | 28 kts | 270° |
| 2026-05-07 06:03 | 13.20528 | 77.71043 | 3016 ft | 30 kts | 270° |
| 2026-05-07 06:03 | 13.20529 | 77.70835 | 3016 ft | 28 kts | 270° |
| 2026-05-07 06:04 | 13.20531 | 77.70641 | 3017 ft | 26 kts | 271° |
| 2026-05-07 06:04 | 13.20533 | 77.70460 | 3017 ft | 25 kts | 270° |
| 2026-05-07 06:04 | 13.20534 | 77.70291 | 3017 ft | 23 kts | 270° |
| 2026-05-07 06:04 | 13.20536 | 77.70120 | 3017 ft | 26 kts | 270° |
| 2026-05-07 06:05 | 13.20537 | 77.69925 | 3017 ft | 29 kts | 269° |
| 2026-05-07 06:05 | 13.20540 | 77.69705 | 3017 ft | 32 kts | 271° |
| 2026-05-07 06:05 | 13.20541 | 77.69549 | 3017 ft | 34 kts | 270° |
| 2026-05-07 06:05 | 13.20544 | 77.69226 | 3017 ft | 33 kts | 270° |
| 2026-05-07 06:06 | 13.20546 | 77.68999 | 3016 ft | 31 kts | 270° |
| 2026-05-07 06:06 | 13.20548 | 77.68852 | 3017 ft | 30 kts | 271° |
| 2026-05-07 06:06 | 13.20549 | 77.68668 | 3017 ft | 18 kts | 276° |
| 2026-05-07 06:06 | 13.20603 | 77.68621 | 3017 ft | 0 kts | 348° |
| 2026-05-07 06:08 | 13.20610 | 77.68620 | 3021 ft | 3 kts | 354° |
| 2026-05-07 06:08 | 13.20653 | 77.68618 | 3017 ft | 9 kts | 355° |
| 2026-05-07 06:08 | 13.20706 | 77.68636 | 3017 ft | 7 kts | 62° |
| 2026-05-07 06:09 | 13.20716 | 77.68681 | 3017 ft | 6 kts | 86° |
| 2026-05-07 06:09 | 13.20716 | 77.68683 | 3017 ft | 0 kts | 87° |
| 2026-05-07 06:09 | 13.20717 | 77.68882 | 3017 ft | 59 kts | 90° |
| 2026-05-07 06:09 | 13.20714 | 77.69506 | 3017 ft | 115 kts | 90° |
| 2026-05-07 06:10 | 13.20703 | 77.70509 | 3017 ft | 165 kts | 91° |
| 2026-05-07 06:10 | 13.20695 | 77.71825 | 3165 ft | 193 kts | 91° |
| 2026-05-07 06:10 | 13.20792 | 77.73106 | 3948 ft | 189 kts | 78° |
| 2026-05-07 06:10 | 13.21464 | 77.74412 | 3991 ft | 223 kts | 56° |
| 2026-05-07 06:11 | 13.22370 | 77.75764 | 4298 ft | 232 kts | 57° |
| 2026-05-07 06:11 | 13.23255 | 77.77177 | 4429 ft | 246 kts | 59° |
| 2026-05-07 06:11 | 13.24166 | 77.78721 | 4580 ft | 259 kts | 60° |
| 2026-05-07 06:11 | 13.25095 | 77.80349 | 4827 ft | 269 kts | 61° |
| 2026-05-07 06:12 | 13.26035 | 77.82024 | 5224 ft | 272 kts | 61° |
| 2026-05-07 06:12 | 13.26979 | 77.83719 | 5638 ft | 275 kts | 62° |
| 2026-05-07 06:12 | 13.27979 | 77.85407 | 6094 ft | 277 kts | 58° |
| 2026-05-07 06:12 | 13.29036 | 77.87066 | 6561 ft | 278 kts | 58° |
| 2026-05-07 06:13 | 13.30094 | 77.88727 | 7018 ft | 278 kts | 58° |
| 2026-05-07 06:13 | 13.31146 | 77.90395 | 7469 ft | 279 kts | 58° |
| 2026-05-07 06:13 | 13.32271 | 77.91995 | 7874 ft | 282 kts | 47° |
| 2026-05-07 06:13 | 13.33750 | 77.93313 | 8357 ft | 282 kts | 38° |
| 2026-05-07 06:14 | 13.35325 | 77.94519 | 8844 ft | 283 kts | 38° |
| 2026-05-07 06:14 | 13.36913 | 77.95728 | 9324 ft | 284 kts | 38° |
| 2026-05-07 06:14 | 13.38503 | 77.96945 | 9786 ft | 285 kts | 38° |
| 2026-05-07 06:14 | 13.40097 | 77.98169 | 10169 ft | 289 kts | 38° |
| 2026-05-07 06:15 | 13.41737 | 77.99439 | 10338 ft | 301 kts | 38° |
| 2026-05-07 06:15 | 13.43443 | 78.00755 | 10527 ft | 313 kts | 38° |
| 2026-05-07 06:15 | 13.45217 | 78.02124 | 10683 ft | 324 kts | 38° |
| 2026-05-07 06:15 | 13.47052 | 78.03542 | 10855 ft | 335 kts | 38° |
| 2026-05-07 06:16 | 13.48947 | 78.05005 | 11012 ft | 346 kts | 38° |
| 2026-05-07 06:16 | 13.50877 | 78.06496 | 11168 ft | 356 kts | 38° |
| 2026-05-07 06:16 | 13.57706 | 78.12332 | 11641 ft | 386 kts | 46° |
| 2026-05-07 06:16 | 13.65374 | 78.20434 | 12791 ft | 399 kts | 46° |
| 2026-05-07 06:17 | 13.73207 | 78.28703 | 14021 ft | 408 kts | 46° |
| 2026-05-07 06:17 | 13.81211 | 78.37157 | 15166 ft | 415 kts | 46° |
| 2026-05-07 06:17 | 13.89315 | 78.45728 | 16205 ft | 423 kts | 46° |
| 2026-05-07 06:17 | 13.97563 | 78.54457 | 17201 ft | 430 kts | 46° |
| 2026-05-07 06:18 | 14.06233 | 78.63167 | 18178 ft | 437 kts | 40° |
| 2026-05-07 06:18 | 14.15813 | 78.71002 | 19014 ft | 442 kts | 38° |
| 2026-05-07 06:18 | 14.25491 | 78.78955 | 19772 ft | 448 kts | 39° |
| 2026-05-07 06:18 | 14.35189 | 78.87167 | 20502 ft | 454 kts | 40° |
| 2026-05-07 06:19 | 14.44845 | 78.95710 | 21267 ft | 460 kts | 40° |
| 2026-05-07 06:19 | 14.54657 | 79.04323 | 22015 ft | 466 kts | 40° |
| 2026-05-07 06:19 | 14.64627 | 79.13078 | 22775 ft | 472 kts | 40° |
| 2026-05-07 06:19 | 14.74705 | 79.21941 | 23490 ft | 479 kts | 40° |
| 2026-05-07 06:20 | 14.84926 | 79.30942 | 24101 ft | 485 kts | 40° |
| 2026-05-07 06:20 | 14.95136 | 79.39944 | 24761 ft | 492 kts | 40° |
| 2026-05-07 06:20 | 15.05687 | 79.49360 | 25481 ft | 498 kts | 40° |
| 2026-05-07 06:20 | 15.16087 | 79.58716 | 26273 ft | 505 kts | 40° |
| 2026-05-07 06:21 | 15.26726 | 79.68284 | 27073 ft | 511 kts | 40° |
| 2026-05-07 06:21 | 15.37541 | 79.78026 | 27926 ft | 518 kts | 40° |
| 2026-05-07 06:21 | 15.48491 | 79.87902 | 28775 ft | 523 kts | 40° |
| 2026-05-07 06:21 | 15.59436 | 79.97791 | 29966 ft | 520 kts | 40° |
| 2026-05-07 06:22 | 15.70308 | 80.07630 | 30798 ft | 519 kts | 40° |
| 2026-05-07 06:22 | 15.92080 | 80.27372 | 32190 ft | 519 kts | 40° |
| 2026-05-07 06:22 | 16.02905 | 80.37207 | 32833 ft | 518 kts | 41° |
| 2026-05-07 06:23 | 16.24796 | 80.57142 | 32856 ft | 523 kts | 41° |
| 2026-05-07 06:23 | 16.46703 | 80.77154 | 32857 ft | 524 kts | 41° |
| 2026-05-07 06:24 | 16.56134 | 80.88590 | 32855 ft | 525 kts | 62° |
| 2026-05-07 06:24 | 16.62687 | 81.02171 | 32862 ft | 527 kts | 64° |
| 2026-05-07 06:24 | 16.75764 | 81.29654 | 32862 ft | 528 kts | 64° |
| 2026-05-07 06:25 | 16.88770 | 81.56998 | 32857 ft | 529 kts | 64° |
| 2026-05-07 06:25 | 17.01852 | 81.84620 | 32886 ft | 530 kts | 64° |
| 2026-05-07 06:26 | 17.14915 | 82.12318 | 32868 ft | 531 kts | 64° |
| 2026-05-07 06:26 | 17.27812 | 82.40183 | 32871 ft | 532 kts | 64° |
| 2026-05-07 06:27 | 17.40683 | 82.68126 | 32874 ft | 534 kts | 65° |
| 2026-05-07 06:27 | 17.53500 | 82.96077 | 32878 ft | 535 kts | 65° |
| 2026-05-07 06:28 | 17.66444 | 83.24218 | 32880 ft | 536 kts | 59° |
| 2026-05-07 06:28 | 17.84341 | 83.49374 | 32881 ft | 537 kts | 52° |
| 2026-05-07 06:29 | 18.02484 | 83.74412 | 32877 ft | 539 kts | 52° |
| 2026-05-07 06:29 | 18.20612 | 83.99530 | 32877 ft | 540 kts | 52° |
| 2026-05-07 06:30 | 18.38626 | 84.24586 | 32879 ft | 542 kts | 52° |
| 2026-05-07 06:30 | 18.56886 | 84.50086 | 32879 ft | 544 kts | 52° |
| 2026-05-07 06:31 | 18.75121 | 84.75652 | 32877 ft | 545 kts | 52° |
| 2026-05-07 06:31 | 18.93475 | 85.01221 | 32876 ft | 547 kts | 52° |
| 2026-05-07 06:32 | 19.12077 | 85.26723 | 32881 ft | 547 kts | 46° |
| 2026-05-07 06:32 | 19.32914 | 85.50215 | 32878 ft | 548 kts | 45° |
| 2026-05-07 06:33 | 19.53702 | 85.73582 | 32877 ft | 550 kts | 45° |
| 2026-05-07 06:33 | 19.74736 | 85.97339 | 32879 ft | 551 kts | 45° |
| 2026-05-07 06:34 | 19.95660 | 86.21162 | 32879 ft | 553 kts | 46° |
| 2026-05-07 06:34 | 20.16437 | 86.45288 | 32879 ft | 553 kts | 45° |
| 2026-05-07 06:35 | 20.37537 | 86.69255 | 32881 ft | 555 kts | 45° |
| 2026-05-07 06:35 | 20.58642 | 86.93390 | 32884 ft | 556 kts | 45° |
| 2026-05-07 06:36 | 20.80162 | 87.17199 | 32890 ft | 557 kts | 44° |
| 2026-05-07 06:36 | 21.01871 | 87.40971 | 32888 ft | 559 kts | 44° |
| 2026-05-07 06:37 | 21.23606 | 87.64891 | 32890 ft | 560 kts | 44° |
| 2026-05-07 06:37 | 21.45206 | 87.88770 | 32894 ft | 562 kts | 44° |
| 2026-05-07 06:38 | 21.68458 | 88.10679 | 32896 ft | 548 kts | 17° |
| 2026-05-07 06:38 | 21.97434 | 88.20626 | 32894 ft | 547 kts | 13° |
| 2026-05-07 06:39 | 22.26570 | 88.30666 | 32887 ft | 549 kts | 13° |
| 2026-05-07 06:39 | 22.55735 | 88.40772 | 32889 ft | 553 kts | 15° |
| 2026-05-07 06:40 | 22.67674 | 88.51301 | 32891 ft | 574 kts | 62° |
| 2026-05-07 06:40 | 22.69348 | 88.67900 | 32894 ft | 558 kts | 112° |
| 2026-05-07 06:40 | 22.58504 | 88.98767 | 32898 ft | 566 kts | 101° |
| 2026-05-07 06:41 | 22.55139 | 89.32499 | 32885 ft | 566 kts | 101° |
| 2026-05-07 06:41 | 22.51327 | 89.66233 | 32898 ft | 564 kts | 101° |
| 2026-05-07 06:42 | 22.47472 | 89.99845 | 32896 ft | 563 kts | 101° |
| 2026-05-07 06:42 | 22.43549 | 90.33407 | 32893 ft | 562 kts | 101° |
| 2026-05-07 06:43 | 22.39560 | 90.66944 | 32902 ft | 562 kts | 101° |
| 2026-05-07 06:43 | 22.35524 | 91.00266 | 32902 ft | 561 kts | 101° |
| 2026-05-07 06:44 | 22.31403 | 91.33711 | 32903 ft | 560 kts | 101° |
| 2026-05-07 06:44 | 22.27540 | 91.67070 | 32908 ft | 560 kts | 101° |
| 2026-05-07 06:45 | 22.26064 | 91.83814 | 32908 ft | 566 kts | 88° |
| 2026-05-07 06:45 | 22.28168 | 92.00738 | 32904 ft | 568 kts | 83° |
| 2026-05-07 06:45 | 22.32900 | 92.34489 | 32896 ft | 567 kts | 84° |
| 2026-05-07 06:46 | 22.37476 | 92.68263 | 32907 ft | 567 kts | 84° |
| 2026-05-07 06:46 | 22.42000 | 93.01914 | 32939 ft | 566 kts | 84° |
| 2026-05-07 06:47 | 22.46437 | 93.35405 | 32967 ft | 565 kts | 84° |
| 2026-05-07 06:47 | 22.50819 | 93.69013 | 32946 ft | 565 kts | 84° |
| 2026-05-07 06:48 | 22.55135 | 94.02675 | 32895 ft | 563 kts | 84° |
| 2026-05-07 06:48 | 22.59369 | 94.36302 | 32886 ft | 564 kts | 84° |
| 2026-05-07 06:49 | 22.63535 | 94.69923 | 32882 ft | 563 kts | 84° |
| 2026-05-07 06:49 | 22.67639 | 95.03641 | 32877 ft | 564 kts | 84° |
| 2026-05-07 06:50 | 22.71661 | 95.37289 | 32872 ft | 564 kts | 84° |
| 2026-05-07 06:50 | 22.75617 | 95.70997 | 32855 ft | 563 kts | 84° |
| 2026-05-07 06:51 | 22.79495 | 96.04660 | 32862 ft | 562 kts | 84° |
| 2026-05-07 06:51 | 22.83270 | 96.38052 | 32891 ft | 560 kts | 84° |
| 2026-05-07 06:52 | 22.86986 | 96.71550 | 32914 ft | 559 kts | 84° |
| 2026-05-07 06:52 | 22.90627 | 97.05031 | 32919 ft | 559 kts | 84° |
| 2026-05-07 06:53 | 22.94195 | 97.38493 | 32905 ft | 557 kts | 84° |
| 2026-05-07 06:53 | 22.97107 | 97.66334 | 32894 ft | 558 kts | 84° |
| 2026-05-07 06:54 | 23.02236 | 97.87832 | 32909 ft | 556 kts | 69° |
| 2026-05-07 06:54 | 23.05902 | 97.98406 | 32915 ft | 556 kts | 69° |
| 2026-05-07 06:54 | 23.16596 | 98.29741 | 32926 ft | 556 kts | 69° |
| 2026-05-07 06:55 | 23.27343 | 98.61533 | 32927 ft | 557 kts | 69° |
| 2026-05-07 06:55 | 23.37865 | 98.92901 | 33034 ft | 555 kts | 69° |
| 2026-05-07 06:56 | 23.47786 | 99.24746 | 33051 ft | 555 kts | 70° |
| 2026-05-07 06:56 | 23.60265 | 99.55249 | 33055 ft | 551 kts | 58° |
| 2026-05-07 06:57 | 23.75439 | 99.84315 | 33070 ft | 551 kts | 59° |
| 2026-05-07 06:57 | 23.90566 | 100.13557 | 33084 ft | 552 kts | 59° |
| 2026-05-07 06:58 | 24.05606 | 100.42816 | 33104 ft | 551 kts | 59° |
| 2026-05-07 06:58 | 24.20481 | 100.72195 | 33131 ft | 552 kts | 60° |
| 2026-05-07 06:59 | 24.35253 | 101.01796 | 33157 ft | 553 kts | 60° |
| 2026-05-07 06:59 | 24.49977 | 101.31465 | 33162 ft | 553 kts | 60° |
| 2026-05-07 07:00 | 24.64528 | 101.61021 | 33173 ft | 552 kts | 60° |
| 2026-05-07 07:00 | 24.78863 | 101.90767 | 33199 ft | 553 kts | 60° |
| 2026-05-07 07:01 | 24.93322 | 102.20927 | 33231 ft | 554 kts | 60° |
| 2026-05-07 07:01 | 25.07758 | 102.50979 | 33281 ft | 553 kts | 54° |
| 2026-05-07 07:02 | 25.27377 | 102.76847 | 33342 ft | 548 kts | 46° |
| 2026-05-07 07:02 | 25.46217 | 103.03464 | 33337 ft | 552 kts | 54° |
| 2026-05-07 07:03 | 25.63063 | 103.31775 | 33343 ft | 551 kts | 54° |
| 2026-05-07 07:03 | 25.79814 | 103.60034 | 33335 ft | 550 kts | 54° |
| 2026-05-07 07:04 | 25.96552 | 103.88441 | 33316 ft | 549 kts | 54° |
| 2026-05-07 07:04 | 26.13447 | 104.16770 | 33290 ft | 549 kts | 53° |
| 2026-05-07 07:05 | 26.30305 | 104.45186 | 33237 ft | 549 kts | 53° |
| 2026-05-07 07:05 | 26.47059 | 104.73601 | 33199 ft | 548 kts | 54° |
| 2026-05-07 07:06 | 26.63724 | 105.02177 | 33198 ft | 549 kts | 59° |
| 2026-05-07 07:06 | 26.76475 | 105.33350 | 33204 ft | 552 kts | 64° |
| 2026-05-07 07:07 | 26.88990 | 105.64732 | 33203 ft | 552 kts | 64° |
| 2026-05-07 07:07 | 27.01429 | 105.96172 | 33197 ft | 551 kts | 64° |
| 2026-05-07 07:08 | 27.15046 | 106.26952 | 33191 ft | 550 kts | 60° |
| 2026-05-07 07:08 | 27.28948 | 106.57553 | 33196 ft | 549 kts | 61° |
| 2026-05-07 07:09 | 27.42747 | 106.88170 | 33185 ft | 549 kts | 62° |
| 2026-05-07 07:09 | 27.56533 | 107.18835 | 33165 ft | 548 kts | 61° |
| 2026-05-07 07:10 | 27.70246 | 107.49304 | 33154 ft | 548 kts | 61° |
| 2026-05-07 07:10 | 27.84016 | 107.80135 | 33135 ft | 548 kts | 61° |
| 2026-05-07 07:11 | 27.98045 | 108.10827 | 33136 ft | 550 kts | 61° |
| 2026-05-07 07:11 | 28.11990 | 108.41649 | 33114 ft | 550 kts | 61° |
| 2026-05-07 07:12 | 28.25924 | 108.72678 | 33123 ft | 552 kts | 61° |
| 2026-05-07 07:12 | 28.39684 | 109.03555 | 33131 ft | 551 kts | 62° |
| 2026-05-07 07:13 | 28.53439 | 109.34717 | 33139 ft | 551 kts | 62° |
| 2026-05-07 07:13 | 28.65475 | 109.66939 | 33149 ft | 554 kts | 68° |
| 2026-05-07 07:14 | 28.77125 | 109.99467 | 33153 ft | 555 kts | 66° |
| 2026-05-07 07:14 | 28.88727 | 110.32171 | 33155 ft | 554 kts | 66° |
| 2026-05-07 07:15 | 29.00148 | 110.64645 | 33161 ft | 555 kts | 66° |
| 2026-05-07 07:15 | 29.11713 | 110.97404 | 33161 ft | 557 kts | 66° |
| 2026-05-07 07:16 | 29.23289 | 111.30359 | 33145 ft | 558 kts | 66° |
| 2026-05-07 07:16 | 29.34874 | 111.63423 | 33135 ft | 558 kts | 61° |
| 2026-05-07 07:17 | 29.51542 | 111.93273 | 33134 ft | 556 kts | 53° |
| 2026-05-07 07:17 | 29.68482 | 112.23100 | 33137 ft | 558 kts | 53° |
| 2026-05-07 07:18 | 29.85219 | 112.52908 | 33131 ft | 557 kts | 53° |
| 2026-05-07 07:18 | 30.01964 | 112.83000 | 33132 ft | 557 kts | 53° |
| 2026-05-07 07:19 | 30.18627 | 113.13172 | 33124 ft | 556 kts | 53° |
| 2026-05-07 07:19 | 30.35429 | 113.43251 | 33127 ft | 554 kts | 52° |
| 2026-05-07 07:20 | 30.52107 | 113.73206 | 33122 ft | 553 kts | 53° |
| 2026-05-07 07:20 | 30.68698 | 114.03236 | 33123 ft | 552 kts | 53° |
| 2026-05-07 07:21 | 30.83020 | 114.34917 | 33120 ft | 560 kts | 67° |
| 2026-05-07 07:21 | 30.93908 | 114.68883 | 33122 ft | 558 kts | 66° |
| 2026-05-07 07:22 | 31.04738 | 115.02570 | 33110 ft | 557 kts | 67° |
| 2026-05-07 07:22 | 31.15531 | 115.36424 | 33128 ft | 557 kts | 67° |
| 2026-05-07 07:23 | 31.26453 | 115.70205 | 33122 ft | 555 kts | 67° |
| 2026-05-07 07:23 | 31.31633 | 115.86377 | 33154 ft | 555 kts | 68° |
| 2026-05-07 07:24 | 31.34355 | 115.94850 | 33150 ft | 556 kts | 67° |
| 2026-05-07 07:24 | 31.37115 | 116.03296 | 33153 ft | 556 kts | 67° |
| 2026-05-07 07:25 | 31.41252 | 116.15989 | 33159 ft | 557 kts | 67° |
| 2026-05-07 07:26 | 31.43982 | 116.24413 | 33151 ft | 557 kts | 67° |
| 2026-05-07 07:26 | 31.50679 | 116.45207 | 33139 ft | 556 kts | 67° |
| 2026-05-07 07:27 | 31.61532 | 116.79171 | 33119 ft | 555 kts | 68° |
| 2026-05-07 07:27 | 31.72243 | 117.13192 | 33112 ft | 554 kts | 68° |
| 2026-05-07 07:27 | 31.76897 | 117.30446 | 33095 ft | 556 kts | 83° |
| 2026-05-07 07:28 | 31.76348 | 117.48247 | 33093 ft | 557 kts | 96° |
| 2026-05-07 07:28 | 31.73640 | 117.84581 | 33079 ft | 556 kts | 95° |
| 2026-05-07 07:29 | 31.71035 | 118.20722 | 33073 ft | 555 kts | 95° |
| 2026-05-07 07:29 | 31.68484 | 118.56758 | 33067 ft | 552 kts | 96° |
| 2026-05-07 07:30 | 31.65830 | 118.92698 | 33066 ft | 551 kts | 96° |
| 2026-05-07 07:30 | 31.63790 | 119.28473 | 33051 ft | 548 kts | 94° |
| 2026-05-07 07:31 | 31.60173 | 119.63747 | 33035 ft | 543 kts | 107° |
| 2026-05-07 07:31 | 31.52529 | 119.97994 | 33018 ft | 542 kts | 107° |
| 2026-05-07 07:32 | 31.44914 | 120.32134 | 33003 ft | 541 kts | 107° |
| 2026-05-07 07:32 | 31.37220 | 120.66159 | 32997 ft | 540 kts | 108° |
| 2026-05-07 07:33 | 31.29493 | 120.99878 | 32982 ft | 541 kts | 108° |
| 2026-05-07 07:33 | 31.22547 | 121.29824 | 32985 ft | 541 kts | 107° |
| 2026-05-07 07:34 | 31.14558 | 121.63852 | 32982 ft | 543 kts | 107° |
| 2026-05-07 07:34 | 31.06450 | 121.97945 | 32991 ft | 546 kts | 107° |
| 2026-05-07 07:35 | 30.99911 | 122.32465 | 33013 ft | 549 kts | 91° |
| 2026-05-07 07:35 | 31.01954 | 122.67756 | 33015 ft | 546 kts | 73° |
| 2026-05-07 07:36 | 31.10433 | 123.01734 | 33021 ft | 545 kts | 73° |
| 2026-05-07 07:36 | 31.18705 | 123.35796 | 33018 ft | 545 kts | 73° |
| 2026-05-07 07:37 | 31.26895 | 123.69923 | 33020 ft | 546 kts | 73° |
| 2026-05-07 07:37 | 31.34950 | 124.03924 | 33032 ft | 545 kts | 73° |
| 2026-05-07 07:38 | 31.42254 | 124.35134 | 33041 ft | 545 kts | 73° |
| 2026-05-07 07:38 | 31.44244 | 124.43700 | 33042 ft | 545 kts | 73° |
| 2026-05-07 07:39 | 31.46232 | 124.52278 | 33045 ft | 545 kts | 74° |
| 2026-05-07 07:39 | 31.49632 | 124.67040 | 33045 ft | 545 kts | 74° |
| 2026-05-07 07:40 | 31.57475 | 125.01413 | 33048 ft | 546 kts | 74° |
| 2026-05-07 07:40 | 31.65258 | 125.35974 | 33052 ft | 548 kts | 75° |
| 2026-05-07 07:41 | 31.72964 | 125.70662 | 33049 ft | 549 kts | 75° |
| 2026-05-07 07:41 | 31.79092 | 125.98398 | 33050 ft | 550 kts | 75° |
| 2026-05-07 07:42 | 31.81000 | 126.07122 | 32948 ft | 551 kts | 76° |
| 2026-05-07 07:42 | 31.82896 | 126.15807 | 32950 ft | 552 kts | 76° |
| 2026-05-07 07:43 | 31.84799 | 126.24568 | 32960 ft | 553 kts | 76° |
| 2026-05-07 07:43 | 31.86695 | 126.33334 | 32951 ft | 553 kts | 76° |
| 2026-05-07 07:44 | 31.88586 | 126.42114 | 32952 ft | 553 kts | 76° |
| 2026-05-07 07:44 | 31.90471 | 126.50889 | 32954 ft | 554 kts | 76° |
| 2026-05-07 07:45 | 31.92403 | 126.59673 | 32957 ft | 554 kts | 76° |
| 2026-05-07 07:45 | 31.97765 | 126.83979 | 32949 ft | 553 kts | 76° |
| 2026-05-07 07:46 | 32.06394 | 127.18824 | 32951 ft | 556 kts | 66° |
| 2026-05-07 07:46 | 32.18957 | 127.52184 | 32954 ft | 556 kts | 65° |
| 2026-05-07 07:47 | 32.31316 | 127.85415 | 32945 ft | 557 kts | 65° |
| 2026-05-07 07:47 | 32.43710 | 128.19055 | 32942 ft | 556 kts | 65° |
| 2026-05-07 07:48 | 32.55962 | 128.52644 | 32941 ft | 555 kts | 65° |
| 2026-05-07 07:48 | 32.67557 | 128.86439 | 32936 ft | 552 kts | 74° |
| 2026-05-07 07:49 | 32.74796 | 129.21683 | 32934 ft | 545 kts | 76° |
| 2026-05-07 07:49 | 32.81822 | 129.56567 | 32932 ft | 540 kts | 77° |
| 2026-05-07 07:50 | 32.87629 | 129.91631 | 32938 ft | 541 kts | 81° |
| 2026-05-07 07:50 | 32.92653 | 130.26997 | 32910 ft | 541 kts | 81° |
| 2026-05-07 07:51 | 32.97601 | 130.62297 | 32928 ft | 540 kts | 81° |
| 2026-05-07 07:51 | 33.02457 | 130.97684 | 32934 ft | 543 kts | 81° |
| 2026-05-07 07:52 | 33.07201 | 131.33033 | 32922 ft | 543 kts | 81° |
| 2026-05-07 07:52 | 33.09523 | 131.50685 | 34177 ft | 534 kts | 82° |
| 2026-05-07 07:52 | 33.11813 | 131.68204 | 34903 ft | 537 kts | 82° |
| 2026-05-07 07:53 | 33.16346 | 132.03574 | 34920 ft | 539 kts | 82° |
| 2026-05-07 07:53 | 33.20772 | 132.38887 | 34913 ft | 537 kts | 83° |
| 2026-05-07 07:54 | 33.25097 | 132.74266 | 34934 ft | 538 kts | 83° |
| 2026-05-07 07:54 | 33.29331 | 133.09697 | 34942 ft | 536 kts | 83° |
| 2026-05-07 07:55 | 33.33431 | 133.44930 | 34941 ft | 533 kts | 83° |
| 2026-05-07 07:55 | 33.37412 | 133.80036 | 34944 ft | 532 kts | 83° |
| 2026-05-07 07:56 | 33.41270 | 134.14943 | 34953 ft | 532 kts | 84° |
| 2026-05-07 07:56 | 33.45049 | 134.50054 | 34949 ft | 531 kts | 84° |
| 2026-05-07 07:57 | 33.48722 | 134.85160 | 34951 ft | 531 kts | 84° |
| 2026-05-07 07:57 | 33.52306 | 135.20327 | 34945 ft | 530 kts | 84° |
| 2026-05-07 07:58 | 33.55784 | 135.55391 | 34942 ft | 528 kts | 84° |
| 2026-05-07 07:58 | 33.59148 | 135.90335 | 34947 ft | 525 kts | 84° |
| 2026-05-07 07:59 | 33.62369 | 136.24831 | 34949 ft | 520 kts | 84° |
| 2026-05-07 07:59 | 33.65489 | 136.59274 | 34952 ft | 518 kts | 84° |
| 2026-05-07 08:00 | 33.68516 | 136.93770 | 34953 ft | 521 kts | 86° |
| 2026-05-07 08:00 | 33.70654 | 137.28619 | 34951 ft | 524 kts | 92° |
| 2026-05-07 08:01 | 33.71555 | 137.63667 | 34951 ft | 525 kts | 92° |
| 2026-05-07 08:01 | 33.72461 | 137.98690 | 34951 ft | 524 kts | 92° |
| 2026-05-07 08:02 | 33.73268 | 138.33749 | 34954 ft | 526 kts | 92° |
| 2026-05-07 08:02 | 33.74655 | 138.51185 | 34952 ft | 533 kts | 73° |
| 2026-05-07 08:02 | 33.81714 | 138.66718 | 34950 ft | 537 kts | 59° |
| 2026-05-07 08:03 | 33.97389 | 138.97621 | 34952 ft | 538 kts | 60° |
| 2026-05-07 08:03 | 34.12871 | 139.28658 | 34947 ft | 542 kts | 60° |
| 2026-05-07 08:04 | 34.28299 | 139.59835 | 34943 ft | 545 kts | 60° |
| 2026-05-07 08:04 | 34.43757 | 139.91355 | 34937 ft | 544 kts | 60° |
| 2026-05-07 08:05 | 34.59131 | 140.22985 | 34930 ft | 544 kts | 60° |
| 2026-05-07 08:05 | 34.74304 | 140.54777 | 34931 ft | 544 kts | 62° |
| 2026-05-07 08:06 | 34.89021 | 140.87007 | 34931 ft | 545 kts | 61° |
| 2026-05-07 08:06 | 35.03684 | 141.19307 | 34939 ft | 545 kts | 62° |
| 2026-05-07 08:07 | 35.18333 | 141.51886 | 34941 ft | 548 kts | 62° |
| 2026-05-07 08:07 | 35.32980 | 141.84773 | 34945 ft | 551 kts | 62° |
| 2026-05-07 08:08 | 35.47531 | 142.17765 | 34953 ft | 554 kts | 62° |
| 2026-05-07 08:08 | 35.62147 | 142.51235 | 34966 ft | 556 kts | 62° |
| 2026-05-07 08:09 | 35.76694 | 142.84881 | 34975 ft | 557 kts | 62° |
| 2026-05-07 08:09 | 35.91182 | 143.18808 | 34978 ft | 559 kts | 65° |
| 2026-05-07 08:09 | 35.94535 | 143.37372 | 34985 ft | 557 kts | 85° |
| 2026-05-07 08:10 | 35.96397 | 143.56354 | 34989 ft | 557 kts | 85° |
| 2026-05-07 08:10 | 36.00194 | 143.94430 | 34998 ft | 559 kts | 84° |
| 2026-05-07 08:10 | 36.04388 | 144.12483 | 34996 ft | 557 kts | 53° |
| 2026-05-07 08:11 | 36.14681 | 144.26674 | 35002 ft | 554 kts | 43° |
| 2026-05-07 08:11 | 36.35947 | 144.54393 | 35006 ft | 554 kts | 44° |
| 2026-05-07 08:12 | 36.57034 | 144.82299 | 34998 ft | 552 kts | 44° |
| 2026-05-07 08:12 | 36.77894 | 145.10135 | 34988 ft | 545 kts | 45° |
| 2026-05-07 08:13 | 36.98322 | 145.37629 | 34998 ft | 542 kts | 45° |
| 2026-05-07 08:13 | 37.18739 | 145.65440 | 34999 ft | 542 kts | 49° |
| 2026-05-07 08:14 | 37.35045 | 145.97412 | 35004 ft | 544 kts | 57° |
| 2026-05-07 08:14 | 37.51022 | 146.29764 | 35015 ft | 544 kts | 57° |
| 2026-05-07 08:15 | 37.66895 | 146.62216 | 35015 ft | 544 kts | 57° |
| 2026-05-07 08:15 | 37.82707 | 146.94864 | 35028 ft | 544 kts | 57° |
| 2026-05-07 08:16 | 37.98443 | 147.27685 | 35040 ft | 545 kts | 57° |
| 2026-05-07 08:16 | 38.13976 | 147.60410 | 35047 ft | 545 kts | 57° |
| 2026-05-07 08:17 | 38.29568 | 147.93594 | 35055 ft | 546 kts | 57° |
| 2026-05-07 08:17 | 38.45059 | 148.26907 | 35057 ft | 547 kts | 57° |
| 2026-05-07 08:18 | 38.60490 | 148.60438 | 35064 ft | 547 kts | 57° |
| 2026-05-07 08:18 | 38.75849 | 148.94168 | 35067 ft | 548 kts | 57° |
| 2026-05-07 08:19 | 38.91120 | 149.28060 | 35062 ft | 549 kts | 57° |
| 2026-05-07 08:19 | 39.06322 | 149.62167 | 35073 ft | 550 kts | 57° |
| 2026-05-07 08:20 | 39.20340 | 149.97355 | 35076 ft | 554 kts | 64° |
| 2026-05-07 08:20 | 39.32496 | 150.33959 | 35081 ft | 555 kts | 64° |
| 2026-05-07 08:21 | 39.44498 | 150.70465 | 35085 ft | 556 kts | 64° |
| 2026-05-07 08:21 | 39.56487 | 151.07413 | 35085 ft | 556 kts | 64° |
| 2026-05-07 08:22 | 39.68372 | 151.44532 | 35092 ft | 557 kts | 64° |
| 2026-05-07 08:22 | 39.80152 | 151.81823 | 35098 ft | 557 kts | 64° |
| 2026-05-07 08:23 | 39.91811 | 152.19232 | 35101 ft | 558 kts | 64° |
| 2026-05-07 08:23 | 40.03353 | 152.56782 | 35100 ft | 558 kts | 64° |
| 2026-05-07 08:24 | 40.14734 | 152.94328 | 35108 ft | 559 kts | 64° |
| 2026-05-07 08:24 | 40.26061 | 153.32227 | 35108 ft | 560 kts | 64° |
| 2026-05-07 08:25 | 40.37299 | 153.70375 | 35106 ft | 561 kts | 64° |
| 2026-05-07 08:25 | 40.48403 | 154.08623 | 35107 ft | 561 kts | 64° |
| 2026-05-07 08:26 | 40.62998 | 154.59765 | 35110 ft | 560 kts | 64° |
| 2026-05-07 08:26 | 40.75552 | 155.04584 | 35115 ft | 560 kts | 64° |
| 2026-05-07 08:27 | 40.84462 | 155.36880 | 35116 ft | 559 kts | 65° |
| 2026-05-07 08:27 | 40.96683 | 155.81867 | 35118 ft | 558 kts | 65° |
| 2026-05-07 08:28 | 41.05296 | 156.14068 | 35121 ft | 557 kts | 65° |
| 2026-05-07 08:28 | 41.15522 | 156.52852 | 35125 ft | 556 kts | 65° |
| 2026-05-07 08:29 | 41.25604 | 156.91709 | 35132 ft | 555 kts | 65° |
| 2026-05-07 08:29 | 41.35539 | 157.30619 | 35127 ft | 555 kts | 66° |
| 2026-05-07 08:30 | 41.45339 | 157.69631 | 35138 ft | 554 kts | 66° |
| 2026-05-07 08:30 | 41.54927 | 158.08443 | 35139 ft | 553 kts | 66° |
| 2026-05-07 08:31 | 41.64416 | 158.47496 | 35144 ft | 552 kts | 66° |
| 2026-05-07 08:31 | 41.73764 | 158.86627 | 35148 ft | 551 kts | 67° |
| 2026-05-07 08:32 | 41.82942 | 159.25710 | 35149 ft | 549 kts | 67° |
| 2026-05-07 08:32 | 41.91985 | 159.64900 | 35158 ft | 548 kts | 67° |
| 2026-05-07 08:33 | 42.01322 | 160.03712 | 35160 ft | 539 kts | 59° |
| 2026-05-07 08:33 | 42.14255 | 160.39993 | 35146 ft | 536 kts | 58° |
| 2026-05-07 08:34 | 42.27050 | 160.76255 | 35153 ft | 535 kts | 58° |
| 2026-05-07 08:34 | 42.39703 | 161.12579 | 35157 ft | 533 kts | 58° |
| 2026-05-07 08:35 | 42.52205 | 161.48946 | 35157 ft | 532 kts | 58° |
| 2026-05-07 08:35 | 42.64563 | 161.85373 | 35151 ft | 531 kts | 59° |
| 2026-05-07 08:36 | 42.76710 | 162.21661 | 35158 ft | 530 kts | 59° |
| 2026-05-07 08:36 | 42.88815 | 162.58311 | 35151 ft | 529 kts | 59° |
| 2026-05-07 08:37 | 43.00778 | 162.95029 | 35153 ft | 528 kts | 59° |
| 2026-05-07 08:37 | 43.12603 | 163.31825 | 35155 ft | 527 kts | 59° |
| 2026-05-07 08:38 | 43.24286 | 163.68686 | 35152 ft | 527 kts | 60° |
| 2026-05-07 08:38 | 43.35823 | 164.05610 | 35146 ft | 526 kts | 60° |
| 2026-05-07 08:39 | 43.47179 | 164.42461 | 35144 ft | 526 kts | 60° |
| 2026-05-07 08:39 | 43.58533 | 164.79844 | 35136 ft | 525 kts | 61° |
| 2026-05-07 08:40 | 43.69637 | 165.16932 | 35135 ft | 525 kts | 61° |
| 2026-05-07 08:40 | 43.80686 | 165.54384 | 35131 ft | 525 kts | 62° |
| 2026-05-07 08:41 | 43.91614 | 165.91979 | 35134 ft | 526 kts | 62° |
| 2026-05-07 08:41 | 44.02415 | 166.29700 | 35130 ft | 526 kts | 62° |
| 2026-05-07 08:42 | 44.13111 | 166.67630 | 35124 ft | 526 kts | 63° |
| 2026-05-07 08:42 | 44.23678 | 167.05684 | 35117 ft | 527 kts | 63° |
| 2026-05-07 08:43 | 44.34138 | 167.43947 | 35113 ft | 528 kts | 63° |
| 2026-05-07 08:43 | 44.44416 | 167.82147 | 35111 ft | 528 kts | 63° |
| 2026-05-07 08:44 | 44.54652 | 168.20806 | 35105 ft | 529 kts | 63° |
| 2026-05-07 08:44 | 44.64764 | 168.59625 | 35095 ft | 530 kts | 63° |
| 2026-05-07 08:45 | 44.74761 | 168.98647 | 35100 ft | 531 kts | 63° |
| 2026-05-07 08:45 | 44.84664 | 169.37959 | 35093 ft | 533 kts | 64° |
| 2026-05-07 08:46 | 44.94464 | 169.77541 | 35088 ft | 535 kts | 64° |
| 2026-05-07 08:46 | 44.99379 | 169.97359 | 35261 ft | 529 kts | 59° |
| 2026-05-07 08:46 | 45.06794 | 170.14563 | 36507 ft | 509 kts | 47° |
| 2026-05-07 08:47 | 45.14651 | 170.31014 | 37083 ft | 516 kts | 47° |
| 2026-05-07 08:47 | 45.22621 | 170.47957 | 37074 ft | 517 kts | 47° |
| 2026-05-07 08:47 | 45.38531 | 170.82109 | 37067 ft | 519 kts | 48° |
| 2026-05-07 08:48 | 45.54436 | 171.16658 | 37068 ft | 522 kts | 48° |
| 2026-05-07 08:48 | 45.70276 | 171.51493 | 37053 ft | 524 kts | 48° |
| 2026-05-07 08:49 | 45.85988 | 171.86469 | 37041 ft | 526 kts | 49° |
| 2026-05-07 08:49 | 46.01755 | 172.22020 | 37033 ft | 528 kts | 49° |
| 2026-05-07 08:50 | 46.17509 | 172.57994 | 37022 ft | 530 kts | 49° |
| 2026-05-07 08:50 | 46.33161 | 172.94201 | 37007 ft | 532 kts | 50° |
| 2026-05-07 08:51 | 46.48731 | 173.30694 | 36996 ft | 533 kts | 51° |
| 2026-05-07 08:51 | 46.64258 | 173.67569 | 36981 ft | 536 kts | 51° |
| 2026-05-07 08:52 | 46.79677 | 174.04687 | 36977 ft | 539 kts | 52° |
| 2026-05-07 08:52 | 46.95136 | 174.42409 | 36967 ft | 541 kts | 53° |
| 2026-05-07 08:53 | 47.10500 | 174.80426 | 36959 ft | 541 kts | 53° |
| 2026-05-07 08:53 | 47.25698 | 175.18552 | 36949 ft | 539 kts | 54° |
| 2026-05-07 08:54 | 47.40689 | 175.56704 | 36932 ft | 536 kts | 54° |
| 2026-05-07 08:54 | 47.55501 | 175.94933 | 36940 ft | 535 kts | 56° |
| 2026-05-07 08:55 | 47.70160 | 176.33312 | 36925 ft | 534 kts | 56° |
| 2026-05-07 08:55 | 47.84646 | 176.71786 | 36918 ft | 533 kts | 57° |
| 2026-05-07 08:56 | 47.98969 | 177.10385 | 36918 ft | 531 kts | 58° |
| 2026-05-07 08:56 | 48.13114 | 177.49065 | 36911 ft | 529 kts | 58° |
| 2026-05-07 08:57 | 48.27103 | 177.87886 | 36902 ft | 528 kts | 59° |
| 2026-05-07 08:57 | 48.40836 | 178.26566 | 36895 ft | 526 kts | 59° |
| 2026-05-07 08:58 | 48.54508 | 178.65653 | 36882 ft | 525 kts | 60° |
| 2026-05-07 08:58 | 48.67978 | 179.04751 | 36873 ft | 524 kts | 60° |
| 2026-05-07 08:59 | 48.81292 | 179.43985 | 36864 ft | 523 kts | 61° |
| 2026-05-07 08:59 | 48.94351 | 179.83067 | 36851 ft | 521 kts | 62° |
| 2026-05-07 09:00 | 48.99906 | -179.96638 | 36847 ft | 522 kts | 80° |
| 2026-05-07 09:00 | 49.01091 | -179.74524 | 36841 ft | 523 kts | 86° |
| 2026-05-07 09:00 | 49.02755 | -179.30319 | 36830 ft | 521 kts | 86° |
| 2026-05-07 09:01 | 49.04311 | -178.86299 | 36818 ft | 519 kts | 87° |
| 2026-05-07 09:01 | 49.05687 | -178.42665 | 36811 ft | 517 kts | 87° |
| 2026-05-07 09:02 | 49.06901 | -177.98911 | 36809 ft | 515 kts | 88° |
| 2026-05-07 09:02 | 49.07946 | -177.55320 | 36795 ft | 514 kts | 88° |
| 2026-05-07 09:03 | 49.08827 | -177.11701 | 36787 ft | 515 kts | 89° |
| 2026-05-07 09:03 | 49.09542 | -176.68136 | 36774 ft | 511 kts | 89° |
| 2026-05-07 09:04 | 49.10087 | -176.24839 | 36764 ft | 508 kts | 90° |
| 2026-05-07 09:04 | 49.10470 | -175.82086 | 36748 ft | 506 kts | 90° |
| 2026-05-07 09:05 | 49.10695 | -175.39160 | 36742 ft | 504 kts | 91° |
| 2026-05-07 09:05 | 49.10760 | -174.96396 | 36733 ft | 503 kts | 91° |
| 2026-05-07 09:06 | 49.10668 | -174.53742 | 36723 ft | 502 kts | 91° |
| 2026-05-07 09:06 | 49.10419 | -174.11145 | 36719 ft | 501 kts | 92° |
| 2026-05-07 09:07 | 49.10016 | -173.68718 | 36716 ft | 499 kts | 92° |
| 2026-05-07 09:07 | 49.09460 | -173.26428 | 36707 ft | 497 kts | 92° |
| 2026-05-07 09:08 | 49.08752 | -172.84336 | 36702 ft | 495 kts | 93° |
| 2026-05-07 09:08 | 49.07893 | -172.42410 | 36702 ft | 494 kts | 93° |
| 2026-05-07 09:09 | 49.06886 | -172.00595 | 36704 ft | 493 kts | 94° |
| 2026-05-07 09:09 | 49.05732 | -171.58907 | 36702 ft | 492 kts | 94° |
| 2026-05-07 09:10 | 49.04432 | -171.17370 | 36711 ft | 489 kts | 94° |
| 2026-05-07 09:10 | 49.02986 | -170.75949 | 36711 ft | 488 kts | 95° |
| 2026-05-07 09:11 | 49.01408 | -170.34935 | 36712 ft | 487 kts | 95° |
| 2026-05-07 09:11 | 49.00220 | -169.93780 | 36718 ft | 487 kts | 89° |
| 2026-05-07 09:12 | 49.01907 | -169.52570 | 36718 ft | 486 kts | 88° |
| 2026-05-07 09:12 | 49.03444 | -169.11439 | 36727 ft | 485 kts | 89° |
| 2026-05-07 09:13 | 49.04834 | -168.70365 | 36732 ft | 484 kts | 89° |
| 2026-05-07 09:13 | 49.06075 | -168.29331 | 36730 ft | 483 kts | 90° |
| 2026-05-07 09:14 | 49.06996 | -167.95247 | 36736 ft | 483 kts | 90° |
| 2026-05-07 09:14 | 49.07967 | -167.54342 | 36742 ft | 482 kts | 90° |
| 2026-05-07 09:15 | 49.08914 | -167.06839 | 36743 ft | 481 kts | 91° |
| 2026-05-07 09:15 | 49.09474 | -166.72649 | 36754 ft | 481 kts | 91° |
| 2026-05-07 09:16 | 49.10007 | -166.32102 | 36760 ft | 481 kts | 91° |
| 2026-05-07 09:16 | 49.10401 | -165.91170 | 36769 ft | 482 kts | 91° |
| 2026-05-07 09:17 | 49.10651 | -165.50230 | 36785 ft | 482 kts | 92° |
| 2026-05-07 09:17 | 49.10756 | -165.09216 | 36796 ft | 482 kts | 92° |
| 2026-05-07 09:18 | 49.10717 | -164.68220 | 36806 ft | 483 kts | 92° |
| 2026-05-07 09:18 | 49.10531 | -164.27178 | 36819 ft | 484 kts | 93° |
| 2026-05-07 09:19 | 49.10200 | -163.86259 | 36836 ft | 485 kts | 93° |
| 2026-05-07 09:19 | 49.09723 | -163.45108 | 36850 ft | 486 kts | 94° |
| 2026-05-07 09:20 | 49.09097 | -163.03839 | 36863 ft | 487 kts | 94° |
| 2026-05-07 09:20 | 49.08321 | -162.62454 | 36877 ft | 489 kts | 94° |
| 2026-05-07 09:21 | 49.07394 | -162.20863 | 36892 ft | 491 kts | 94° |
| 2026-05-07 09:21 | 49.06312 | -161.79181 | 36898 ft | 493 kts | 95° |
| 2026-05-07 09:22 | 49.05071 | -161.37211 | 36914 ft | 496 kts | 95° |
| 2026-05-07 09:22 | 49.03674 | -160.95173 | 36916 ft | 498 kts | 95° |
| 2026-05-07 09:23 | 49.02127 | -160.53193 | 36925 ft | 500 kts | 95° |
| 2026-05-07 09:23 | 49.00410 | -160.10817 | 36938 ft | 502 kts | 95° |
| 2026-05-07 09:24 | 49.00374 | -159.89640 | 38038 ft | 497 kts | 88° |
| 2026-05-07 09:24 | 49.01259 | -159.68605 | 38881 ft | 498 kts | 88° |
| 2026-05-07 09:24 | 49.02914 | -159.26148 | 38953 ft | 503 kts | 88° |
| 2026-05-07 09:25 | 49.04409 | -158.83490 | 38958 ft | 504 kts | 89° |
| 2026-05-07 09:25 | 49.05751 | -158.40640 | 38966 ft | 506 kts | 89° |
| 2026-05-07 09:26 | 49.06932 | -157.97908 | 38966 ft | 508 kts | 89° |
| 2026-05-07 09:26 | 49.07962 | -157.54752 | 38965 ft | 510 kts | 89° |
| 2026-05-07 09:27 | 49.08835 | -157.11408 | 38966 ft | 512 kts | 90° |
| 2026-05-07 09:28 | 49.09842 | -156.46169 | 38962 ft | 514 kts | 90° |
| 2026-05-07 09:28 | 49.10312 | -156.02489 | 38957 ft | 513 kts | 90° |
| 2026-05-07 09:29 | 49.10615 | -155.59021 | 38955 ft | 511 kts | 91° |
| 2026-05-07 09:29 | 49.10755 | -155.15674 | 38948 ft | 510 kts | 91° |
| 2026-05-07 09:30 | 49.10733 | -154.72697 | 38954 ft | 508 kts | 92° |
| 2026-05-07 09:30 | 49.10552 | -154.29702 | 38948 ft | 506 kts | 93° |
| 2026-05-07 09:31 | 49.10212 | -153.86853 | 38937 ft | 505 kts | 94° |
| 2026-05-07 09:31 | 49.09713 | -153.43941 | 38928 ft | 505 kts | 94° |
| 2026-05-07 09:32 | 49.09058 | -153.01184 | 38917 ft | 503 kts | 95° |
| 2026-05-07 09:32 | 49.08248 | -152.58605 | 38906 ft | 501 kts | 95° |
| 2026-05-07 09:33 | 49.07286 | -152.16246 | 38905 ft | 499 kts | 96° |
| 2026-05-07 09:33 | 49.06171 | -151.73911 | 38892 ft | 497 kts | 97° |
| 2026-05-07 09:34 | 49.04910 | -151.31918 | 38881 ft | 494 kts | 98° |
| 2026-05-07 09:34 | 49.03508 | -150.90250 | 38867 ft | 491 kts | 98° |
| 2026-05-07 09:35 | 49.01975 | -150.49097 | 38876 ft | 489 kts | 99° |
| 2026-05-07 09:35 | 49.00287 | -150.07782 | 38854 ft | 487 kts | 99° |
| 2026-05-07 09:36 | 49.01366 | -149.66134 | 38863 ft | 494 kts | 92° |
| 2026-05-07 09:36 | 49.02987 | -149.24203 | 38859 ft | 496 kts | 92° |
| 2026-05-07 09:37 | 49.04455 | -148.82157 | 38871 ft | 497 kts | 92° |
| 2026-05-07 09:37 | 49.05773 | -148.39980 | 38883 ft | 496 kts | 93° |
| 2026-05-07 09:38 | 49.06931 | -147.97977 | 38903 ft | 495 kts | 94° |
| 2026-05-07 09:38 | 49.07933 | -147.56080 | 38923 ft | 494 kts | 95° |
| 2026-05-07 09:39 | 49.08786 | -147.14219 | 38941 ft | 493 kts | 95° |
| 2026-05-07 09:39 | 49.09480 | -146.72662 | 38958 ft | 493 kts | 95° |
| 2026-05-07 09:40 | 49.10029 | -146.30804 | 38978 ft | 492 kts | 96° |
| 2026-05-07 09:40 | 49.10425 | -145.89004 | 38996 ft | 492 kts | 96° |
| 2026-05-07 09:41 | 49.10671 | -145.47205 | 39021 ft | 492 kts | 96° |
| 2026-05-07 09:41 | 49.10765 | -145.05386 | 39041 ft | 493 kts | 97° |
| 2026-05-07 09:42 | 49.10710 | -144.63540 | 39063 ft | 493 kts | 97° |
| 2026-05-07 09:42 | 49.10502 | -144.21641 | 39081 ft | 493 kts | 98° |
| 2026-05-07 09:43 | 49.10146 | -143.80088 | 39103 ft | 493 kts | 98° |
| 2026-05-07 09:43 | 49.09637 | -143.38226 | 39124 ft | 492 kts | 99° |
| 2026-05-07 09:44 | 49.08976 | -142.96420 | 39144 ft | 492 kts | 99° |
| 2026-05-07 09:44 | 49.08165 | -142.54625 | 39163 ft | 493 kts | 99° |
| 2026-05-07 09:45 | 49.07202 | -142.12811 | 39181 ft | 493 kts | 99° |
| 2026-05-07 09:45 | 49.06085 | -141.70972 | 39194 ft | 494 kts | 99° |
| 2026-05-07 09:46 | 49.04825 | -141.29246 | 39209 ft | 497 kts | 99° |
| 2026-05-07 09:46 | 49.03393 | -140.87048 | 39219 ft | 499 kts | 99° |
| 2026-05-07 09:47 | 49.01803 | -140.44723 | 39237 ft | 501 kts | 99° |
| 2026-05-07 09:47 | 48.99648 | -140.02471 | 39245 ft | 491 kts | 111° |
| 2026-05-07 09:47 | 48.93605 | -139.84495 | 39247 ft | 474 kts | 129° |
| 2026-05-07 09:48 | 48.86464 | -139.67669 | 39257 ft | 474 kts | 130° |
| 2026-05-07 09:48 | 48.72217 | -139.33938 | 39261 ft | 474 kts | 130° |
| 2026-05-07 09:49 | 48.57935 | -139.00527 | 39267 ft | 473 kts | 130° |
| 2026-05-07 09:49 | 48.43638 | -138.67493 | 39270 ft | 472 kts | 130° |
| 2026-05-07 09:50 | 48.29161 | -138.34448 | 39277 ft | 473 kts | 130° |
| 2026-05-07 09:50 | 48.14556 | -138.01517 | 39271 ft | 474 kts | 130° |
| 2026-05-07 09:51 | 47.99832 | -137.68712 | 39283 ft | 476 kts | 130° |
| 2026-05-07 09:51 | 47.84950 | -137.35955 | 39294 ft | 477 kts | 130° |
| 2026-05-07 09:52 | 47.69988 | -137.03411 | 39301 ft | 477 kts | 130° |
| 2026-05-07 09:52 | 47.54925 | -136.71037 | 39303 ft | 478 kts | 131° |
| 2026-05-07 09:53 | 47.39812 | -136.38931 | 39318 ft | 478 kts | 131° |
| 2026-05-07 09:53 | 47.24420 | -136.06615 | 39314 ft | 478 kts | 131° |
| 2026-05-07 09:54 | 47.09140 | -135.74908 | 39315 ft | 478 kts | 132° |
| 2026-05-07 09:54 | 46.93661 | -135.43147 | 39315 ft | 478 kts | 132° |
| 2026-05-07 09:55 | 46.78123 | -135.11633 | 39322 ft | 478 kts | 132° |
| 2026-05-07 09:55 | 46.62445 | -134.80191 | 39323 ft | 480 kts | 132° |
| 2026-05-07 09:56 | 46.46627 | -134.48823 | 39325 ft | 482 kts | 132° |
| 2026-05-07 09:56 | 46.30625 | -134.17445 | 39327 ft | 484 kts | 132° |
| 2026-05-07 09:57 | 46.14525 | -133.86228 | 39331 ft | 485 kts | 133° |
| 2026-05-07 09:57 | 45.98377 | -133.55261 | 39334 ft | 485 kts | 132° |
| 2026-05-07 09:58 | 45.82078 | -133.24345 | 39333 ft | 485 kts | 132° |
| 2026-05-07 09:58 | 45.65746 | -132.93704 | 39331 ft | 483 kts | 133° |
| 2026-05-07 09:59 | 45.49371 | -132.63315 | 39327 ft | 482 kts | 133° |
| 2026-05-07 09:59 | 45.32927 | -132.33123 | 39323 ft | 484 kts | 133° |
| 2026-05-07 10:00 | 45.16314 | -132.02942 | 39327 ft | 485 kts | 133° |
| 2026-05-07 10:00 | 44.99607 | -131.72909 | 39322 ft | 486 kts | 133° |
| 2026-05-07 10:01 | 44.82875 | -131.43147 | 39320 ft | 487 kts | 132° |
| 2026-05-07 10:01 | 44.65936 | -131.13328 | 39319 ft | 488 kts | 132° |
| 2026-05-07 10:02 | 44.48865 | -130.83589 | 39316 ft | 490 kts | 133° |
| 2026-05-07 10:02 | 44.34449 | -130.58713 | 39318 ft | 491 kts | 132° |
| 2026-05-07 10:03 | 44.17285 | -130.29375 | 39314 ft | 491 kts | 132° |
| 2026-05-07 10:03 | 43.99843 | -130.00034 | 39311 ft | 491 kts | 137° |
| 2026-05-07 10:04 | 43.80649 | -129.73093 | 39302 ft | 490 kts | 137° |
| 2026-05-07 10:04 | 43.61334 | -129.46423 | 39293 ft | 490 kts | 137° |
| 2026-05-07 10:05 | 43.41986 | -129.19963 | 39291 ft | 490 kts | 137° |
| 2026-05-07 10:05 | 43.22600 | -128.93703 | 39286 ft | 489 kts | 137° |
| 2026-05-07 10:06 | 43.03309 | -128.67815 | 39284 ft | 488 kts | 137° |
| 2026-05-07 10:06 | 42.83875 | -128.41978 | 39275 ft | 487 kts | 137° |
| 2026-05-07 10:07 | 42.64426 | -128.16362 | 39269 ft | 484 kts | 137° |
| 2026-05-07 10:07 | 42.44994 | -127.90997 | 39264 ft | 483 kts | 137° |
| 2026-05-07 10:08 | 42.25642 | -127.65967 | 39257 ft | 480 kts | 137° |
| 2026-05-07 10:08 | 42.06409 | -127.41310 | 39250 ft | 479 kts | 137° |
| 2026-05-07 10:09 | 41.87060 | -127.16722 | 39240 ft | 478 kts | 137° |
| 2026-05-07 10:09 | 41.67749 | -126.92395 | 39236 ft | 475 kts | 137° |
| 2026-05-07 10:10 | 41.48437 | -126.68276 | 39233 ft | 475 kts | 137° |
| 2026-05-07 10:10 | 41.29021 | -126.44235 | 39230 ft | 476 kts | 138° |
| 2026-05-07 10:11 | 41.09559 | -126.20341 | 39223 ft | 478 kts | 138° |
| 2026-05-07 10:11 | 40.89893 | -125.96401 | 39220 ft | 481 kts | 139° |
| 2026-05-07 10:12 | 40.70038 | -125.72433 | 39216 ft | 486 kts | 139° |
| 2026-05-07 10:12 | 40.50074 | -125.48539 | 39207 ft | 489 kts | 139° |
| 2026-05-07 10:13 | 40.29849 | -125.24535 | 39200 ft | 491 kts | 140° |
| 2026-05-07 10:13 | 40.09488 | -125.00574 | 39194 ft | 493 kts | 140° |
| 2026-05-07 10:14 | 39.88975 | -124.76635 | 39185 ft | 496 kts | 140° |
| 2026-05-07 10:14 | 39.68292 | -124.52701 | 39180 ft | 498 kts | 140° |
| 2026-05-07 10:15 | 39.47507 | -124.28848 | 39174 ft | 499 kts | 140° |
| 2026-05-07 10:15 | 39.26940 | -124.05440 | 39174 ft | 497 kts | 140° |
| 2026-05-07 10:16 | 39.06076 | -123.81888 | 38147 ft | 500 kts | 140° |
| 2026-05-07 10:16 | 38.95915 | -123.70030 | 37071 ft | 502 kts | 135° |
| 2026-05-07 10:16 | 38.86116 | -123.57287 | 34422 ft | 503 kts | 135° |
| 2026-05-07 10:16 | 38.76164 | -123.44563 | 31096 ft | 509 kts | 135° |
| 2026-05-07 10:17 | 38.66097 | -123.31758 | 27897 ft | 503 kts | 135° |
| 2026-05-07 10:17 | 38.56462 | -123.19560 | 26634 ft | 460 kts | 135° |
| 2026-05-07 10:17 | 38.47740 | -123.08566 | 25463 ft | 422 kts | 135° |
| 2026-05-07 10:17 | 38.39908 | -122.98684 | 23571 ft | 387 kts | 135° |
| 2026-05-07 10:18 | 38.32344 | -122.89183 | 21857 ft | 378 kts | 136° |
| 2026-05-07 10:18 | 38.24896 | -122.79859 | 20185 ft | 372 kts | 136° |
| 2026-05-07 10:18 | 38.15673 | -122.74769 | 18519 ft | 366 kts | 168° |
| 2026-05-07 10:18 | 38.05780 | -122.71946 | 16661 ft | 360 kts | 168° |
| 2026-05-07 10:19 | 37.96955 | -122.69395 | 15180 ft | 351 kts | 168° |
| 2026-05-07 10:19 | 37.87960 | -122.65341 | 13615 ft | 347 kts | 142° |
| 2026-05-07 10:19 | 37.80759 | -122.57650 | 12586 ft | 327 kts | 140° |
| 2026-05-07 10:19 | 37.74048 | -122.50538 | 11289 ft | 304 kts | 141° |
| 2026-05-07 10:20 | 37.67869 | -122.43978 | 11000 ft | 301 kts | 141° |
| 2026-05-07 10:20 | 37.65351 | -122.41297 | 10996 ft | 301 kts | 140° |
| 2026-05-07 10:20 | 37.60830 | -122.35330 | 10892 ft | 299 kts | 118° |
| 2026-05-07 10:20 | 37.59891 | -122.33031 | 10265 ft | 293 kts | 117° |
| 2026-05-07 10:21 | 37.58980 | -122.30723 | 9376 ft | 295 kts | 117° |
| 2026-05-07 10:21 | 37.58061 | -122.28416 | 8709 ft | 293 kts | 117° |
| 2026-05-07 10:21 | 37.57133 | -122.26105 | 8243 ft | 296 kts | 117° |
| 2026-05-07 10:21 | 37.56206 | -122.23811 | 7648 ft | 290 kts | 117° |
| 2026-05-07 10:22 | 37.55296 | -122.21564 | 7033 ft | 287 kts | 117° |
| 2026-05-07 10:22 | 37.54388 | -122.19328 | 6441 ft | 286 kts | 117° |
| 2026-05-07 10:22 | 37.53452 | -122.17128 | 5905 ft | 287 kts | 122° |
| 2026-05-07 10:22 | 37.52114 | -122.15338 | 5446 ft | 287 kts | 148° |
| 2026-05-07 10:23 | 37.50222 | -122.14552 | 4876 ft | 281 kts | 178° |
| 2026-05-07 10:23 | 37.48375 | -122.15015 | 4250 ft | 273 kts | 207° |
| 2026-05-07 10:23 | 37.46913 | -122.16484 | 3705 ft | 268 kts | 234° |
| 2026-05-07 10:23 | 37.46161 | -122.18570 | 3283 ft | 256 kts | 262° |
| 2026-05-07 10:24 | 37.46209 | -122.20702 | 3217 ft | 237 kts | 284° |
| 2026-05-07 10:24 | 37.46862 | -122.22518 | 3161 ft | 223 kts | 306° |
| 2026-05-07 10:24 | 37.47945 | -122.23798 | 3147 ft | 207 kts | 328° |
| 2026-05-07 10:24 | 37.49216 | -122.24458 | 3115 ft | 190 kts | 347° |
| 2026-05-07 10:25 | 37.50489 | -122.24713 | 2999 ft | 180 kts | 352° |
| 2026-05-07 10:25 | 37.51734 | -122.24891 | 2654 ft | 183 kts | 353° |
| 2026-05-07 10:25 | 37.53025 | -122.25076 | 2217 ft | 191 kts | 352° |
| 2026-05-07 10:25 | 37.54359 | -122.25274 | 1831 ft | 194 kts | 352° |
| 2026-05-07 10:26 | 37.55682 | -122.25472 | 1470 ft | 187 kts | 351° |
| 2026-05-07 10:26 | 37.56832 | -122.25949 | 1292 ft | 161 kts | 319° |
| 2026-05-07 10:26 | 37.57569 | -122.26864 | 1297 ft | 138 kts | 311° |
| 2026-05-07 10:26 | 37.58063 | -122.27862 | 1182 ft | 133 kts | 292° |
| 2026-05-07 10:27 | 37.58486 | -122.28900 | 1099 ft | 133 kts | 300° |
| 2026-05-07 10:27 | 37.58927 | -122.29926 | 1034 ft | 133 kts | 296° |
| 2026-05-07 10:27 | 37.59355 | -122.30951 | 907 ft | 134 kts | 298° |
| 2026-05-07 10:27 | 37.59791 | -122.31985 | 730 ft | 134 kts | 297° |
| 2026-05-07 10:28 | 37.60225 | -122.33018 | 542 ft | 132 kts | 297° |
| 2026-05-07 10:28 | 37.60653 | -122.34038 | 367 ft | 131 kts | 298° |
| 2026-05-07 10:28 | 37.61077 | -122.35049 | 204 ft | 130 kts | 297° |
| 2026-05-07 10:28 | 37.61497 | -122.36050 | 47 ft | 127 kts | 297° |
| 2026-05-07 10:29 | 37.61873 | -122.36950 | 28 ft | 98 kts | 298° |
| 2026-05-07 10:29 | 37.62061 | -122.37396 | 27 ft | 32 kts | 297° |
| 2026-05-07 10:29 | 37.62190 | -122.37732 | 28 ft | 38 kts | 295° |
| 2026-05-07 10:30 | 37.62221 | -122.38129 | 28 ft | 1 kts | 254° |
| 2026-05-07 10:30 | 37.62211 | -122.38158 | 28 ft | 7 kts | 239° |
| 2026-05-07 10:30 | 37.62160 | -122.38211 | 28 ft | 13 kts | 210° |
| 2026-05-07 10:30 | 37.62090 | -122.38299 | 28 ft | 15 kts | 265° |
| 2026-05-07 10:31 | 37.62098 | -122.38335 | 28 ft | 0 kts | 294° |
| 2026-05-07 10:31 | 37.62102 | -122.38347 | 28 ft | 4 kts | 289° |
| 2026-05-07 10:32 | 37.62121 | -122.38394 | 28 ft | 8 kts | 301° |
| 2026-05-07 10:32 | 37.62157 | -122.38480 | 28 ft | 14 kts | 297° |
| 2026-05-07 10:32 | 37.62188 | -122.38591 | 28 ft | 11 kts | 264° |
| 2026-05-07 10:32 | 37.62180 | -122.38693 | 28 ft | 12 kts | 283° |
| 2026-05-07 10:33 | 37.62214 | -122.38790 | 28 ft | 11 kts | 296° |
| 2026-05-07 10:33 | 37.62231 | -122.38855 | 28 ft | 3 kts | 255° |
| 2026-05-07 10:33 | 37.62215 | -122.38870 | 28 ft | 4 kts | 220° |
| 2026-05-07 10:33 | 37.62182 | -122.38894 | 28 ft | 7 kts | 209° |
| 2026-05-07 10:34 | 37.62136 | -122.38925 | 28 ft | 0 kts | 207° |